首页
METAR-TAF:

METAR-TAF

机场 :

史密斯堡, 西北特區, 加拿大

纬度: 60-01N, 经度: 111-57W, 海拔: 203米

当前天气观测

该预报发布于48分钟前的20:00 UTC
风速8节,风向西北,在西北之间变化
温度 -18°C
湿度 49%
气压 1023 hPa
能見度: 24.1公里
少量云层高于3500英尺
少量云层高于24000英尺
低吹雪

METAR: CYSM 282000Z 32008KT 310V010 15SM DRSN FEW035 FEW240 M18/M26 A3021 RMK CF1CI1 CF TR CI TR SLP258

时间: 14:48 (20:48 UTC)

预报

该预报发布于3小时和10分钟前的17:38 UTC
预报有效从28日的 18点(UTC)到 29日的 06点(UTC)
风速10节,风向西转西北
能見度: 10公里
天空无云
成为
从 28日的 22点(UTC)到 28日的 24点(UTC)
风速3节,风向多变

TAF: CYSM 281738Z 2818/2906 30010KT P6SM SKC BECMG 2822/2824 VRB03KT RMK NXT FCST BY 290000Z

超过4000个机场的气象观测和天气预报(METAR&TAF报告)。

可查询的气象台以黄色和红色小点在地图上表示。

将鼠标移到小点上方,可查看气象台名称。

然后点击查看天气观测和预报。

如需切换地图:点击带黑十字的绿色按钮放大地图;点击带横线的绿色按钮缩小地图;或者点击绿色箭头查看邻近地区的地图。


METAR-TAF: